Time,TemperatureF,DewpointF,PressureIn,WindDirection,WindDirectionDegrees,WindSpeedMPH,WindSpeedGustMPH,Humidity,HourlyPrecipIn,Conditions,Clouds,dailyrainin,SoftwareType,DateUTC
2013-07-16 00:00:00,77.1,63.5,30.06,NNW,333,4.0,-999.0,63,0.00,,,0.00,Wunderground v.1.15,2013-07-16 04:00:00,
2013-07-16 00:05:00,76.9,65.1,30.06,NNW,333,4.0,-999.0,67,0.00,,,0.00,Wunderground v.1.15,2013-07-16 04:05:00,
2013-07-16 00:10:00,76.3,66.2,30.06,NNW,333,5.0,-999.0,71,0.00,,,0.00,Wunderground v.1.15,2013-07-16 04:10:00,
2013-07-16 00:15:00,76.0,66.3,30.06,NW,309,5.0,-999.0,72,0.00,,,0.00,Wunderground v.1.15,2013-07-16 04:15:00,
2013-07-16 00:20:00,75.8,64.5,30.07,WNW,303,6.0,-999.0,68,0.00,,,0.00,Wunderground v.1.15,2013-07-16 04:20:00,
2013-07-16 00:25:00,76.0,63.4,30.07,WNW,299,5.0,-999.0,65,0.00,,,0.00,Wunderground v.1.15,2013-07-16 04:25:00,
2013-07-16 00:30:00,76.0,63.8,30.07,WNW,299,5.0,-999.0,66,0.00,,,0.00,Wunderground v.1.15,2013-07-16 04:30:00,
2013-07-16 00:35:00,76.3,62.3,30.07,WNW,299,5.0,-999.0,62,0.00,,,0.00,Wunderground v.1.15,2013-07-16 04:35:00,
2013-07-16 00:40:00,76.3,62.3,30.07,WNW,299,5.0,-999.0,62,0.00,,,0.00,Wunderground v.1.15,2013-07-16 04:40:00,
2013-07-16 00:50:00,76.2,62.7,30.06,WNW,286,5.0,-999.0,63,0.00,,,0.00,Wunderground v.1.15,2013-07-16 04:50:00,
2013-07-16 00:55:00,76.2,62.7,30.07,WNW,286,5.0,-999.0,63,0.00,,,0.00,Wunderground v.1.15,2013-07-16 04:55:00,
2013-07-16 01:00:00,76.2,62.2,30.07,WNW,286,5.0,-999.0,62,0.00,,,0.00,Wunderground v.1.15,2013-07-16 05:00:00,
2013-07-16 01:10:00,76.1,62.1,30.07,WNW,286,5.0,-999.0,62,0.00,,,0.00,Wunderground v.1.15,2013-07-16 05:10:00,
2013-07-16 01:20:00,75.6,62.6,30.07,WNW,286,5.0,-999.0,64,0.00,,,0.00,Wunderground v.1.15,2013-07-16 05:20:00,
2013-07-16 01:30:00,75.2,63.1,30.07,WNW,286,6.0,-999.0,66,0.00,,,0.00,Wunderground v.1.15,2013-07-16 05:30:00,
2013-07-16 01:35:00,75.3,63.2,30.07,WNW,286,6.0,-999.0,66,0.00,,,0.00,Wunderground v.1.15,2013-07-16 05:35:00,
2013-07-16 01:40:00,75.4,62.8,30.07,WNW,286,6.0,-999.0,65,0.00,,,0.00,Wunderground v.1.15,2013-07-16 05:40:00,
2013-07-16 01:45:00,75.2,63.5,30.06,WNW,286,6.0,-999.0,67,0.00,,,0.00,Wunderground v.1.15,2013-07-16 05:45:00,
2013-07-16 01:55:00,74.4,64.0,30.06,WNW,286,6.0,-999.0,70,0.00,,,0.00,Wunderground v.1.15,2013-07-16 05:55:00,
2013-07-16 02:00:00,74.1,64.5,30.07,WNW,286,7.0,-999.0,72,0.00,,,0.00,Wunderground v.1.15,2013-07-16 06:00:00,
2013-07-16 02:10:00,74.4,64.0,30.07,WNW,286,6.0,-999.0,70,0.00,,,0.00,Wunderground v.1.15,2013-07-16 06:10:00,
2013-07-16 02:15:00,74.6,64.2,30.07,WNW,286,5.0,-999.0,70,0.00,,,0.00,Wunderground v.1.15,2013-07-16 06:15:00,
2013-07-16 02:25:00,74.6,64.6,30.07,WNW,285,6.0,-999.0,71,0.00,,,0.00,Wunderground v.1.15,2013-07-16 06:25:00,
2013-07-16 02:30:00,74.7,65.5,30.07,West,277,6.0,-999.0,73,0.00,,,0.00,Wunderground v.1.15,2013-07-16 06:30:00,
2013-07-16 02:35:00,74.8,65.2,30.07,West,275,6.0,-999.0,72,0.00,,,0.00,Wunderground v.1.15,2013-07-16 06:35:00,
2013-07-16 02:40:00,74.8,65.2,30.07,West,275,6.0,-999.0,72,0.00,,,0.00,Wunderground v.1.15,2013-07-16 06:40:00,
2013-07-16 02:45:00,74.6,65.8,30.07,West,275,5.0,-999.0,74,0.00,,,0.00,Wunderground v.1.15,2013-07-16 06:45:00,
2013-07-16 02:50:00,74.4,65.6,30.07,West,273,5.0,-999.0,74,0.00,,,0.00,Wunderground v.1.15,2013-07-16 06:50:00,
2013-07-16 02:55:00,74.5,65.7,30.07,West,273,6.0,-999.0,74,0.00,,,0.00,Wunderground v.1.15,2013-07-16 06:55:00,
2013-07-16 03:00:00,74.3,65.9,30.07,West,273,6.0,-999.0,75,0.00,,,0.00,Wunderground v.1.15,2013-07-16 07:00:00,
2013-07-16 03:10:00,74.2,66.1,30.07,West,273,6.0,-999.0,76,0.00,,,0.00,Wunderground v.1.15,2013-07-16 07:10:00,
2013-07-16 03:15:00,74.0,66.3,30.07,West,273,6.0,-999.0,77,0.00,,,0.00,Wunderground v.1.15,2013-07-16 07:15:00,
2013-07-16 03:20:00,73.9,66.2,30.07,West,273,6.0,-999.0,77,0.00,,,0.00,Wunderground v.1.15,2013-07-16 07:20:00,
2013-07-16 03:30:00,73.8,66.1,30.07,West,273,6.0,-999.0,77,0.00,,,0.00,Wunderground v.1.15,2013-07-16 07:30:00,
2013-07-16 03:35:00,73.6,66.3,30.07,West,273,6.0,-999.0,78,0.00,,,0.00,Wunderground v.1.15,2013-07-16 07:35:00,
2013-07-16 03:40:00,73.1,66.2,30.07,West,273,6.0,-999.0,79,0.00,,,0.00,Wunderground v.1.15,2013-07-16 07:40:00,
2013-07-16 03:45:00,73.1,66.6,30.07,West,273,6.0,-999.0,80,0.00,,,0.00,Wunderground v.1.15,2013-07-16 07:45:00,
2013-07-16 03:50:00,73.3,66.4,30.07,West,273,6.0,-999.0,79,0.00,,,0.00,Wunderground v.1.15,2013-07-16 07:50:00,
2013-07-16 03:55:00,73.5,66.2,30.07,West,273,6.0,-999.0,78,0.00,,,0.00,Wunderground v.1.15,2013-07-16 07:55:00,
2013-07-16 04:00:00,73.6,66.7,30.07,West,273,6.0,-999.0,79,0.00,,,0.00,Wunderground v.1.15,2013-07-16 08:00:00,
2013-07-16 04:10:00,73.5,66.6,30.07,West,273,5.0,-999.0,79,0.00,,,0.00,Wunderground v.1.15,2013-07-16 08:10:00,
2013-07-16 04:15:00,73.6,66.7,30.07,West,273,5.0,-999.0,79,0.00,,,0.00,Wunderground v.1.15,2013-07-16 08:15:00,
2013-07-16 04:20:00,73.7,66.8,30.07,West,273,5.0,-999.0,79,0.00,,,0.00,Wunderground v.1.15,2013-07-16 08:20:00,
2013-07-16 04:25:00,73.6,66.7,30.07,West,273,5.0,-999.0,79,0.00,,,0.00,Wunderground v.1.15,2013-07-16 08:25:00,
2013-07-16 04:35:00,73.0,66.5,30.07,West,273,5.0,-999.0,80,0.00,,,0.00,Wunderground v.1.15,2013-07-16 08:35:00,
2013-07-16 04:40:00,73.1,66.9,30.07,West,273,5.0,-999.0,81,0.00,,,0.00,Wunderground v.1.15,2013-07-16 08:40:00,
2013-07-16 04:45:00,73.2,67.0,30.07,West,273,5.0,-999.0,81,0.00,,,0.00,Wunderground v.1.15,2013-07-16 08:45:00,
2013-07-16 04:50:00,73.3,67.1,30.07,West,273,5.0,-999.0,81,0.00,,,0.00,Wunderground v.1.15,2013-07-16 08:50:00,
2013-07-16 04:55:00,73.5,67.3,30.07,West,273,4.0,-999.0,81,0.00,,,0.00,Wunderground v.1.15,2013-07-16 08:55:00,
2013-07-16 05:00:00,73.7,67.5,30.07,West,273,5.0,-999.0,81,0.00,,,0.00,Wunderground v.1.15,2013-07-16 09:00:00,
2013-07-16 05:10:00,74.0,67.8,30.07,West,273,4.0,-999.0,81,0.00,,,0.00,Wunderground v.1.15,2013-07-16 09:10:00,
2013-07-16 05:15:00,74.2,67.6,30.07,West,273,4.0,-999.0,80,0.00,,,0.00,Wunderground v.1.15,2013-07-16 09:15:00,
2013-07-16 05:20:00,74.4,67.8,30.07,West,273,4.0,-999.0,80,0.00,,,0.00,Wunderground v.1.15,2013-07-16 09:20:00,
2013-07-16 05:25:00,74.6,68.0,30.08,West,273,4.0,-999.0,80,0.00,,,0.00,Wunderground v.1.15,2013-07-16 09:25:00,
2013-07-16 05:30:00,74.7,67.8,30.08,West,273,4.0,-999.0,79,0.00,,,0.00,Wunderground v.1.15,2013-07-16 09:30:00,
2013-07-16 05:40:00,74.8,67.8,30.08,West,273,3.0,-999.0,79,0.00,,,0.00,Wunderground v.1.15,2013-07-16 09:40:00,
2013-07-16 05:45:00,74.9,67.6,30.08,West,273,3.0,-999.0,78,0.00,,,0.00,Wunderground v.1.15,2013-07-16 09:45:00,
2013-07-16 05:50:00,74.9,67.6,30.08,West,273,3.0,-999.0,78,0.00,,,0.00,Wunderground v.1.15,2013-07-16 09:50:00,
2013-07-16 05:55:00,75.0,67.3,30.08,West,273,3.0,-999.0,77,0.00,,,0.00,Wunderground v.1.15,2013-07-16 09:55:00,
2013-07-16 06:00:00,75.0,67.3,30.08,West,273,3.0,-999.0,77,0.00,,,0.00,Wunderground v.1.15,2013-07-16 10:00:00,
2013-07-16 06:10:00,75.1,67.0,30.08,West,273,3.0,-999.0,76,0.00,,,0.00,Wunderground v.1.15,2013-07-16 10:10:00,
2013-07-16 06:15:00,75.3,67.6,30.09,West,273,4.0,-999.0,77,0.00,,,0.00,Wunderground v.1.15,2013-07-16 10:15:00,
2013-07-16 06:20:00,75.3,67.6,30.09,West,273,4.0,-999.0,77,0.00,,,0.00,Wunderground v.1.15,2013-07-16 10:20:00,
2013-07-16 06:25:00,75.2,67.9,30.09,West,273,4.0,-999.0,78,0.00,,,0.00,Wunderground v.1.15,2013-07-16 10:25:00,
2013-07-16 06:35:00,75.0,67.7,30.09,West,273,4.0,-999.0,78,0.00,,,0.00,Wunderground v.1.15,2013-07-16 10:35:00,
2013-07-16 06:40:00,75.0,67.7,30.09,West,273,4.0,-999.0,78,0.00,,,0.00,Wunderground v.1.15,2013-07-16 10:40:00,
2013-07-16 06:45:00,75.0,68.0,30.09,West,273,4.0,-999.0,79,0.00,,,0.00,Wunderground v.1.15,2013-07-16 10:45:00,
2013-07-16 06:50:00,75.1,68.5,30.09,West,273,4.0,-999.0,80,0.00,,,0.00,Wunderground v.1.15,2013-07-16 10:50:00,
2013-07-16 06:55:00,75.1,68.5,30.09,West,273,4.0,-999.0,80,0.00,,,0.00,Wunderground v.1.15,2013-07-16 10:55:00,
2013-07-16 07:00:00,75.1,68.9,30.09,West,273,4.0,-999.0,81,0.00,,,0.00,Wunderground v.1.15,2013-07-16 11:00:00,
2013-07-16 07:10:00,75.4,69.2,30.09,West,273,4.0,-999.0,81,0.00,,,0.00,Wunderground v.1.15,2013-07-16 11:10:00,
2013-07-16 07:15:00,75.5,68.9,30.09,West,273,4.0,-999.0,80,0.00,,,0.00,Wunderground v.1.15,2013-07-16 11:15:00,
2013-07-16 07:20:00,75.5,69.3,30.09,West,273,4.0,-999.0,81,0.00,,,0.00,Wunderground v.1.15,2013-07-16 11:20:00,
2013-07-16 07:25:00,75.6,69.4,30.10,West,273,5.0,-999.0,81,0.00,,,0.00,Wunderground v.1.15,2013-07-16 11:25:00,
2013-07-16 07:30:00,75.4,69.5,30.09,West,273,4.0,-999.0,82,0.00,,,0.00,Wunderground v.1.15,2013-07-16 11:30:00,
2013-07-16 07:35:00,74.9,69.4,30.09,West,273,5.0,-999.0,83,0.00,,,0.00,Wunderground v.1.15,2013-07-16 11:35:00,
2013-07-16 07:40:00,74.6,69.4,30.09,West,273,5.0,-999.0,84,0.00,,,0.00,Wunderground v.1.15,2013-07-16 11:40:00,
2013-07-16 07:50:00,74.4,69.6,30.09,West,273,5.0,-999.0,85,0.00,,,0.00,Wunderground v.1.15,2013-07-16 11:50:00,
2013-07-16 07:55:00,74.3,69.5,30.10,West,273,5.0,-999.0,85,0.00,,,0.00,Wunderground v.1.15,2013-07-16 11:55:00,
2013-07-16 08:00:00,74.4,69.9,30.10,West,273,5.0,-999.0,86,0.00,,,0.00,Wunderground v.1.15,2013-07-16 12:00:00,
2013-07-16 08:10:00,75.1,70.3,30.10,West,273,4.0,-999.0,85,0.00,,,0.00,Wunderground v.1.15,2013-07-16 12:10:00,
2013-07-16 08:20:00,76.4,70.5,30.10,West,273,4.0,-999.0,82,0.00,,,0.00,Wunderground v.1.15,2013-07-16 12:20:00,
2013-07-16 08:25:00,77.0,71.1,30.10,West,273,5.0,-999.0,82,0.00,,,0.00,Wunderground v.1.15,2013-07-16 12:25:00,
2013-07-16 08:30:00,77.4,71.1,30.10,West,273,4.0,-999.0,81,0.00,,,0.00,Wunderground v.1.15,2013-07-16 12:30:00,
2013-07-16 08:35:00,77.8,71.5,30.10,West,273,4.0,-999.0,81,0.00,,,0.00,Wunderground v.1.15,2013-07-16 12:35:00,
2013-07-16 08:40:00,78.2,71.5,30.10,West,273,2.0,-999.0,80,0.00,,,0.00,Wunderground v.1.15,2013-07-16 12:40:00,
2013-07-16 08:45:00,78.4,72.1,30.10,West,273,1.0,-999.0,81,0.00,,,0.00,Wunderground v.1.15,2013-07-16 12:45:00,
2013-07-16 08:55:00,78.8,72.8,30.10,West,273,1.0,-999.0,82,0.00,,,0.00,Wunderground v.1.15,2013-07-16 12:55:00,
2013-07-16 09:00:00,78.3,72.3,30.10,West,273,2.0,-999.0,82,0.00,,,0.00,Wunderground v.1.15,2013-07-16 13:00:00,
2013-07-16 09:10:00,77.8,72.2,30.10,West,273,1.0,-999.0,83,0.00,,,0.00,Wunderground v.1.15,2013-07-16 13:10:00,
2013-07-16 09:15:00,77.8,72.2,30.10,West,273,1.0,-999.0,83,0.00,,,0.00,Wunderground v.1.15,2013-07-16 13:15:00,
2013-07-16 09:25:00,77.4,71.8,30.10,West,273,2.0,-999.0,83,0.00,,,0.00,Wunderground v.1.15,2013-07-16 13:25:00,
2013-07-16 09:30:00,77.3,72.1,30.10,West,273,2.0,-999.0,84,0.00,,,0.00,Wunderground v.1.15,2013-07-16 13:30:00,
2013-07-16 09:35:00,77.3,71.7,30.09,West,273,2.0,-999.0,83,0.00,,,0.00,Wunderground v.1.15,2013-07-16 13:35:00,
2013-07-16 09:40:00,77.4,71.8,30.10,West,273,2.0,-999.0,83,0.00,,,0.00,Wunderground v.1.15,2013-07-16 13:40:00,
2013-07-16 09:45:00,77.6,72.0,30.10,West,273,3.0,-999.0,83,0.00,,,0.00,Wunderground v.1.15,2013-07-16 13:45:00,
2013-07-16 09:50:00,77.8,72.2,30.10,West,273,3.0,-999.0,83,0.00,,,0.00,Wunderground v.1.15,2013-07-16 13:50:00,
2013-07-16 10:00:00,78.0,72.1,30.09,West,273,3.0,-999.0,82,0.00,,,0.00,Wunderground v.1.15,2013-07-16 14:00:00,
2013-07-16 10:10:00,78.5,72.9,30.09,West,273,2.0,-999.0,83,0.00,,,0.00,Wunderground v.1.15,2013-07-16 14:10:00,
2013-07-16 10:15:00,79.0,73.0,30.09,West,273,2.0,-999.0,82,0.00,,,0.00,Wunderground v.1.15,2013-07-16 14:15:00,
2013-07-16 10:20:00,79.4,73.1,30.09,West,273,3.0,-999.0,81,0.00,,,0.00,Wunderground v.1.15,2013-07-16 14:20:00,
2013-07-16 10:30:00,80.2,73.8,30.09,West,273,2.0,-999.0,81,0.00,,,0.00,Wunderground v.1.15,2013-07-16 14:30:00,
2013-07-16 10:35:00,80.5,73.8,30.09,West,273,2.0,-999.0,80,0.00,,,0.00,Wunderground v.1.15,2013-07-16 14:35:00,
2013-07-16 10:40:00,80.6,73.9,30.09,West,273,2.0,-999.0,80,0.00,,,0.00,Wunderground v.1.15,2013-07-16 14:40:00,
2013-07-16 10:45:00,80.8,73.7,30.08,West,273,2.0,-999.0,79,0.00,,,0.00,Wunderground v.1.15,2013-07-16 14:45:00,
2013-07-16 10:50:00,81.2,74.4,30.08,West,273,2.0,-999.0,80,0.00,,,0.00,Wunderground v.1.15,2013-07-16 14:50:00,
2013-07-16 10:55:00,81.6,74.1,30.08,West,273,2.0,-999.0,78,0.00,,,0.00,Wunderground v.1.15,2013-07-16 14:55:00,
2013-07-16 11:00:00,82.0,74.1,30.08,West,273,2.0,-999.0,77,0.00,,,0.00,Wunderground v.1.15,2013-07-16 15:00:00,
2013-07-16 11:10:00,82.4,74.1,30.08,West,273,2.0,-999.0,76,0.00,,,0.00,Wunderground v.1.15,2013-07-16 15:10:00,
2013-07-16 11:15:00,82.4,74.1,30.08,West,273,2.0,-999.0,76,0.00,,,0.00,Wunderground v.1.15,2013-07-16 15:15:00,
2013-07-16 11:20:00,82.5,74.2,30.07,West,273,3.0,-999.0,76,0.00,,,0.00,Wunderground v.1.15,2013-07-16 15:20:00,
2013-07-16 11:25:00,82.7,74.4,30.07,West,273,3.0,-999.0,76,0.00,,,0.00,Wunderground v.1.15,2013-07-16 15:25:00,
2013-07-16 11:35:00,82.5,73.8,30.08,West,273,1.0,-999.0,75,0.00,,,0.00,Wunderground v.1.15,2013-07-16 15:35:00,
2013-07-16 11:40:00,83.0,74.3,30.08,West,273,1.0,-999.0,75,0.00,,,0.00,Wunderground v.1.15,2013-07-16 15:40:00,
2013-07-16 11:45:00,83.3,73.7,30.08,West,273,2.0,-999.0,73,0.00,,,0.00,Wunderground v.1.15,2013-07-16 15:45:00,
2013-07-16 11:50:00,83.4,73.4,30.08,West,273,2.0,-999.0,72,0.00,,,0.00,Wunderground v.1.15,2013-07-16 15:50:00,
2013-07-16 11:55:00,83.7,73.3,30.08,West,273,2.0,-999.0,71,0.00,,,0.00,Wunderground v.1.15,2013-07-16 15:55:00,
2013-07-16 12:00:00,84.1,71.5,30.08,West,273,2.0,-999.0,66,0.00,,,0.00,Wunderground v.1.15,2013-07-16 16:00:00,
2013-07-16 12:10:00,85.8,72.2,30.07,West,273,4.0,-999.0,64,0.00,,,0.00,Wunderground v.1.15,2013-07-16 16:10:00,
2013-07-16 12:15:00,86.3,71.3,30.08,NNW,338,5.0,-999.0,61,0.00,,,0.00,Wunderground v.1.15,2013-07-16 16:15:00,
2013-07-16 12:20:00,86.5,71.5,30.07,NW,320,5.0,-999.0,61,0.00,,,0.00,Wunderground v.1.15,2013-07-16 16:20:00,
2013-07-16 12:25:00,85.9,70.9,30.07,NW,312,5.0,-999.0,61,0.00,,,0.00,Wunderground v.1.15,2013-07-16 16:25:00,
2013-07-16 12:30:00,86.2,71.2,30.07,NNW,342,4.0,-999.0,61,0.00,,,0.00,Wunderground v.1.15,2013-07-16 16:30:00,
2013-07-16 12:40:00,85.9,71.4,30.07,NW,311,6.0,-999.0,62,0.00,,,0.00,Wunderground v.1.15,2013-07-16 16:40:00,
2013-07-16 12:45:00,85.7,72.1,30.07,WNW,300,5.0,-999.0,64,0.00,,,0.00,Wunderground v.1.15,2013-07-16 16:45:00,
2013-07-16 12:50:00,86.0,71.0,30.07,NNW,345,4.0,-999.0,61,0.00,,,0.00,Wunderground v.1.15,2013-07-16 16:50:00,
2013-07-16 12:55:00,86.3,70.8,30.07,NNW,343,4.0,-999.0,60,0.00,,,0.00,Wunderground v.1.15,2013-07-16 16:55:00,
2013-07-16 13:00:00,86.8,71.2,30.06,North,355,5.0,-999.0,60,0.00,,,0.00,Wunderground v.1.15,2013-07-16 17:00:00,
2013-07-16 13:10:00,87.0,71.4,30.06,NW,315,5.0,-999.0,60,0.00,,,0.00,Wunderground v.1.15,2013-07-16 17:10:00,
2013-07-16 13:15:00,87.2,70.6,30.06,North,355,5.0,-999.0,58,0.00,,,0.00,Wunderground v.1.15,2013-07-16 17:15:00,
2013-07-16 13:20:00,87.3,70.7,30.06,NNW,345,6.0,-999.0,58,0.00,,,0.00,Wunderground v.1.15,2013-07-16 17:20:00,
2013-07-16 13:25:00,87.3,70.2,30.06,NNW,335,5.0,-999.0,57,0.00,,,0.00,Wunderground v.1.15,2013-07-16 17:25:00,
2013-07-16 13:30:00,87.1,71.0,30.06,NNW,338,4.0,-999.0,59,0.00,,,0.00,Wunderground v.1.15,2013-07-16 17:30:00,
2013-07-16 13:35:00,86.9,70.3,30.06,NNW,337,4.0,-999.0,58,0.00,,,0.00,Wunderground v.1.15,2013-07-16 17:35:00,
2013-07-16 13:45:00,87.4,70.8,30.05,North,355,5.0,-999.0,58,0.00,,,0.00,Wunderground v.1.15,2013-07-16 17:45:00,
2013-07-16 13:50:00,87.6,70.5,30.05,North,355,5.0,-999.0,57,0.00,,,0.00,Wunderground v.1.15,2013-07-16 17:50:00,
2013-07-16 13:55:00,87.3,70.2,30.05,NNW,337,5.0,-999.0,57,0.00,,,0.00,Wunderground v.1.15,2013-07-16 17:55:00,
2013-07-16 14:00:00,86.8,71.2,30.05,NNW,337,4.0,-999.0,60,0.00,,,0.00,Wunderground v.1.15,2013-07-16 18:00:00,
2013-07-16 14:10:00,86.5,71.0,30.05,NW,314,5.0,-999.0,60,0.00,,,0.00,Wunderground v.1.15,2013-07-16 18:10:00,
2013-07-16 14:20:00,86.1,71.1,30.05,NNW,345,3.0,-999.0,61,0.00,,,0.00,Wunderground v.1.15,2013-07-16 18:20:00,
2013-07-16 14:25:00,86.7,71.6,30.05,NW,324,4.0,-999.0,61,0.00,,,0.00,Wunderground v.1.15,2013-07-16 18:25:00,
2013-07-16 14:30:00,86.7,72.1,30.04,NW,313,5.0,-999.0,62,0.00,,,0.00,Wunderground v.1.15,2013-07-16 18:30:00,
2013-07-16 14:35:00,86.9,71.8,30.05,North,355,5.0,-999.0,61,0.00,,,0.00,Wunderground v.1.15,2013-07-16 18:35:00,
2013-07-16 14:40:00,87.2,72.1,30.04,North,5,6.0,-999.0,61,0.00,,,0.00,Wunderground v.1.15,2013-07-16 18:40:00,
2013-07-16 14:50:00,86.8,72.2,30.04,NW,322,5.0,-999.0,62,0.00,,,0.00,Wunderground v.1.15,2013-07-16 18:50:00,
2013-07-16 14:55:00,87.2,72.1,30.04,NNW,342,5.0,-999.0,61,0.00,,,0.00,Wunderground v.1.15,2013-07-16 18:55:00,
2013-07-16 15:00:00,87.5,72.4,30.04,NNW,340,5.0,-999.0,61,0.00,,,0.00,Wunderground v.1.15,2013-07-16 19:00:00,
2013-07-16 15:10:00,87.6,73.0,30.04,NNW,330,5.0,-999.0,62,0.00,,,0.00,Wunderground v.1.15,2013-07-16 19:10:00,
2013-07-16 15:15:00,87.7,72.1,30.03,NNW,344,6.0,-999.0,60,0.00,,,0.00,Wunderground v.1.15,2013-07-16 19:15:00,
2013-07-16 15:25:00,87.0,72.4,30.03,NNW,348,5.0,-999.0,62,0.00,,,0.00,Wunderground v.1.15,2013-07-16 19:25:00,
2013-07-16 15:30:00,87.0,72.4,30.03,NW,309,4.0,-999.0,62,0.00,,,0.00,Wunderground v.1.15,2013-07-16 19:30:00,
2013-07-16 15:35:00,87.0,73.3,30.03,NW,308,4.0,-999.0,64,0.00,,,0.00,Wunderground v.1.15,2013-07-16 19:35:00,
2013-07-16 15:40:00,86.9,72.8,30.03,NW,315,5.0,-999.0,63,0.00,,,0.00,Wunderground v.1.15,2013-07-16 19:40:00,
2013-07-16 15:45:00,86.9,71.8,30.03,NW,310,6.0,-999.0,61,0.00,,,0.00,Wunderground v.1.15,2013-07-16 19:45:00,
2013-07-16 15:55:00,87.3,72.7,30.03,North,349,5.0,-999.0,62,0.00,,,0.00,Wunderground v.1.15,2013-07-16 19:55:00,
2013-07-16 16:00:00,87.5,72.9,30.03,North,355,6.0,-999.0,62,0.00,,,0.00,Wunderground v.1.15,2013-07-16 20:00:00,
2013-07-16 16:10:00,88.0,72.4,30.03,North,5,6.0,-999.0,60,0.00,,,0.00,Wunderground v.1.15,2013-07-16 20:10:00,
2013-07-16 16:15:00,87.9,72.3,30.02,NNE,13,6.0,-999.0,60,0.00,,,0.00,Wunderground v.1.15,2013-07-16 20:15:00,
2013-07-16 16:20:00,87.7,72.6,30.02,North,355,6.0,-999.0,61,0.00,,,0.00,Wunderground v.1.15,2013-07-16 20:20:00,
2013-07-16 16:30:00,87.5,70.9,30.02,NW,321,5.0,-999.0,58,0.00,,,0.00,Wunderground v.1.15,2013-07-16 20:30:00,
2013-07-16 16:35:00,87.7,72.1,30.02,NW,316,5.0,-999.0,60,0.00,,,0.00,Wunderground v.1.15,2013-07-16 20:35:00,
2013-07-16 16:40:00,87.7,71.1,30.02,North,360,6.0,-999.0,58,0.00,,,0.00,Wunderground v.1.15,2013-07-16 20:40:00,
2013-07-16 16:45:00,87.7,71.1,30.02,NNW,339,7.0,-999.0,58,0.00,,,0.00,Wunderground v.1.15,2013-07-16 20:45:00,
2013-07-16 16:50:00,87.5,70.4,30.02,North,355,8.0,-999.0,57,0.00,,,0.00,Wunderground v.1.15,2013-07-16 20:50:00,
2013-07-16 17:00:00,87.3,70.7,30.02,North,355,7.0,-999.0,58,0.00,,,0.00,Wunderground v.1.15,2013-07-16 21:00:00,
2013-07-16 17:10:00,87.4,70.8,30.02,NNW,348,7.0,-999.0,58,0.00,,,0.00,Wunderground v.1.15,2013-07-16 21:10:00,
2013-07-16 17:15:00,87.5,69.9,30.02,NNW,348,7.0,-999.0,56,0.00,,,0.00,Wunderground v.1.15,2013-07-16 21:15:00,
2013-07-16 17:20:00,87.5,69.3,30.02,North,360,7.0,-999.0,55,0.00,,,0.00,Wunderground v.1.15,2013-07-16 21:20:00,
2013-07-16 17:25:00,87.4,69.8,30.02,NNW,340,6.0,-999.0,56,0.00,,,0.00,Wunderground v.1.15,2013-07-16 21:25:00,
2013-07-16 17:35:00,87.4,69.8,30.02,NNW,346,7.0,-999.0,56,0.00,,,0.00,Wunderground v.1.15,2013-07-16 21:35:00,
2013-07-16 17:40:00,87.2,69.6,30.02,North,350,7.0,-999.0,56,0.00,,,0.00,Wunderground v.1.15,2013-07-16 21:40:00,
2013-07-16 17:45:00,87.1,69.5,30.02,North,355,6.0,-999.0,56,0.00,,,0.00,Wunderground v.1.15,2013-07-16 21:45:00,
2013-07-16 17:50:00,87.1,70.0,30.02,NNW,346,6.0,-999.0,57,0.00,,,0.00,Wunderground v.1.15,2013-07-16 21:50:00,
2013-07-16 17:55:00,87.0,68.9,30.02,NNW,338,6.0,-999.0,55,0.00,,,0.00,Wunderground v.1.15,2013-07-16 21:55:00,
2013-07-16 18:00:00,87.0,68.3,30.02,NNW,344,7.0,-999.0,54,0.00,,,0.00,Wunderground v.1.15,2013-07-16 22:00:00,
2013-07-16 18:10:00,86.8,69.2,30.02,North,349,6.0,-999.0,56,0.00,,,0.00,Wunderground v.1.15,2013-07-16 22:10:00,
2013-07-16 18:15:00,86.8,69.2,30.02,North,349,5.0,-999.0,56,0.00,,,0.00,Wunderground v.1.15,2013-07-16 22:15:00,
2013-07-16 18:20:00,86.7,67.5,30.02,NNW,348,6.0,-999.0,53,0.00,,,0.00,Wunderground v.1.15,2013-07-16 22:20:00,
2013-07-16 18:25:00,86.6,68.0,30.01,NNW,348,6.0,-999.0,54,0.00,,,0.00,Wunderground v.1.15,2013-07-16 22:25:00,
2013-07-16 18:30:00,86.4,67.8,30.02,NNW,346,5.0,-999.0,54,0.00,,,0.00,Wunderground v.1.15,2013-07-16 22:30:00,
2013-07-16 18:40:00,86.3,66.6,30.02,NNW,346,5.0,-999.0,52,0.00,,,0.00,Wunderground v.1.15,2013-07-16 22:40:00,
2013-07-16 18:45:00,86.0,66.3,30.01,NNW,343,6.0,-999.0,52,0.00,,,0.00,Wunderground v.1.15,2013-07-16 22:45:00,
2013-07-16 18:50:00,85.9,66.2,30.01,North,350,6.0,-999.0,52,0.00,,,0.00,Wunderground v.1.15,2013-07-16 22:50:00,
2013-07-16 18:55:00,85.8,66.1,30.02,NNW,347,6.0,-999.0,52,0.00,,,0.00,Wunderground v.1.15,2013-07-16 22:55:00,
2013-07-16 19:00:00,85.7,66.6,30.02,North,349,6.0,-999.0,53,0.00,,,0.00,Wunderground v.1.15,2013-07-16 23:00:00,
2013-07-16 19:10:00,85.4,66.9,30.02,North,349,6.0,-999.0,54,0.00,,,0.00,Wunderground v.1.15,2013-07-16 23:10:00,
2013-07-16 19:15:00,85.3,67.3,30.02,North,349,5.0,-999.0,55,0.00,,,0.00,Wunderground v.1.15,2013-07-16 23:15:00,
2013-07-16 19:20:00,85.1,67.1,30.01,North,349,5.0,-999.0,55,0.00,,,0.00,Wunderground v.1.15,2013-07-16 23:20:00,
2013-07-16 19:25:00,84.9,66.9,30.01,North,349,5.0,-999.0,55,0.00,,,0.00,Wunderground v.1.15,2013-07-16 23:25:00,
2013-07-16 19:30:00,84.7,67.8,30.01,North,349,5.0,-999.0,57,0.00,,,0.00,Wunderground v.1.15,2013-07-16 23:30:00,
2013-07-16 19:35:00,84.6,68.2,30.01,North,349,3.0,-999.0,58,0.00,,,0.00,Wunderground v.1.15,2013-07-16 23:35:00,
2013-07-16 19:40:00,84.2,68.8,30.02,North,349,1.0,-999.0,60,0.00,,,0.00,Wunderground v.1.15,2013-07-16 23:40:00,
2013-07-16 19:45:00,83.7,69.8,30.02,North,349,1.0,-999.0,63,0.00,,,0.00,Wunderground v.1.15,2013-07-16 23:45:00,
2013-07-16 19:55:00,82.7,68.4,30.02,North,349,1.0,-999.0,62,0.00,,,0.00,Wunderground v.1.15,2013-07-16 23:55:00,
2013-07-16 20:00:00,82.3,68.9,30.02,North,349,1.0,-999.0,64,0.00,,,0.00,Wunderground v.1.15,2013-07-17 00:00:00,
2013-07-16 20:10:00,81.4,68.5,30.02,North,349,0.0,-999.0,65,0.00,,,0.00,Wunderground v.1.15,2013-07-17 00:10:00,
2013-07-16 20:15:00,81.1,68.2,30.02,North,349,1.0,-999.0,65,0.00,,,0.00,Wunderground v.1.15,2013-07-17 00:15:00,
2013-07-16 20:20:00,80.9,68.0,30.02,North,349,1.0,-999.0,65,0.00,,,0.00,Wunderground v.1.15,2013-07-17 00:20:00,
2013-07-16 20:25:00,80.7,67.8,30.02,North,349,1.0,-999.0,65,0.00,,,0.00,Wunderground v.1.15,2013-07-17 00:25:00,
2013-07-16 20:30:00,80.5,67.6,30.02,North,349,1.0,-999.0,65,0.00,,,0.00,Wunderground v.1.15,2013-07-17 00:30:00,
2013-07-16 20:35:00,80.3,67.5,30.03,North,349,1.0,-999.0,65,0.00,,,0.00,Wunderground v.1.15,2013-07-17 00:35:00,
2013-07-16 20:40:00,80.3,67.5,30.03,North,349,1.0,-999.0,65,0.00,,,0.00,Wunderground v.1.15,2013-07-17 00:40:00,
2013-07-16 20:50:00,80.2,67.8,30.03,North,349,2.0,-999.0,66,0.00,,,0.00,Wunderground v.1.15,2013-07-17 00:50:00,
2013-07-16 20:55:00,80.1,67.7,30.03,North,349,3.0,-999.0,66,0.00,,,0.00,Wunderground v.1.15,2013-07-17 00:55:00,
2013-07-16 21:00:00,79.9,68.0,30.03,North,349,3.0,-999.0,67,0.00,,,0.00,Wunderground v.1.15,2013-07-17 01:00:00,
2013-07-16 21:10:00,79.6,68.1,30.03,North,349,3.0,-999.0,68,0.00,,,0.00,Wunderground v.1.15,2013-07-17 01:10:00,
2013-07-16 21:20:00,79.0,68.4,30.03,North,349,2.0,-999.0,70,0.00,,,0.00,Wunderground v.1.15,2013-07-17 01:20:00,
2013-07-16 21:25:00,78.8,68.2,30.03,North,349,2.0,-999.0,70,0.00,,,0.00,Wunderground v.1.15,2013-07-17 01:25:00,
2013-07-16 21:30:00,78.7,68.1,30.03,North,349,2.0,-999.0,70,0.00,,,0.00,Wunderground v.1.15,2013-07-17 01:30:00,
2013-07-16 21:35:00,78.7,68.1,30.03,North,349,2.0,-999.0,70,0.00,,,0.00,Wunderground v.1.15,2013-07-17 01:35:00,
2013-07-16 21:40:00,78.5,67.9,30.03,North,349,2.0,-999.0,70,0.00,,,0.00,Wunderground v.1.15,2013-07-17 01:40:00,
2013-07-16 21:45:00,78.4,67.8,30.03,North,349,2.0,-999.0,70,0.00,,,0.00,Wunderground v.1.15,2013-07-17 01:45:00,
2013-07-16 21:55:00,78.4,67.4,30.03,North,349,2.0,-999.0,69,0.00,,,0.00,Wunderground v.1.15,2013-07-17 01:55:00,
2013-07-16 22:00:00,78.6,67.2,30.03,North,349,2.0,-999.0,68,0.00,,,0.00,Wunderground v.1.15,2013-07-17 02:00:00,
2013-07-16 22:10:00,78.6,66.7,30.03,North,349,3.0,-999.0,67,0.00,,,0.00,Wunderground v.1.15,2013-07-17 02:10:00,
2013-07-16 22:15:00,78.6,66.7,30.04,North,349,3.0,-999.0,67,0.00,,,0.00,Wunderground v.1.15,2013-07-17 02:15:00,
2013-07-16 22:25:00,78.7,66.8,30.03,North,349,3.0,-999.0,67,0.00,,,0.00,Wunderground v.1.15,2013-07-17 02:25:00,
2013-07-16 22:30:00,78.6,66.7,30.03,North,349,3.0,-999.0,67,0.00,,,0.00,Wunderground v.1.15,2013-07-17 02:30:00,
2013-07-16 22:35:00,78.5,66.6,30.03,North,349,3.0,-999.0,67,0.00,,,0.00,Wunderground v.1.15,2013-07-17 02:35:00,
2013-07-16 22:40:00,78.5,66.2,30.03,North,349,4.0,-999.0,66,0.00,,,0.00,Wunderground v.1.15,2013-07-17 02:40:00,
2013-07-16 22:45:00,78.4,66.5,30.04,NNW,346,4.0,-999.0,67,0.00,,,0.00,Wunderground v.1.15,2013-07-17 02:45:00,
2013-07-16 22:50:00,77.9,66.9,30.03,NNW,344,4.0,-999.0,69,0.00,,,0.00,Wunderground v.1.15,2013-07-17 02:50:00,
2013-07-16 23:00:00,77.8,67.6,30.04,NW,313,5.0,-999.0,71,0.00,,,0.00,Wunderground v.1.15,2013-07-17 03:00:00,
2013-07-16 23:10:00,77.7,68.0,30.03,NW,304,5.0,-999.0,72,0.00,,,0.00,Wunderground v.1.15,2013-07-17 03:10:00,
2013-07-16 23:15:00,77.5,68.2,30.03,NW,304,4.0,-999.0,73,0.00,,,0.00,Wunderground v.1.15,2013-07-17 03:15:00,
2013-07-16 23:20:00,77.5,68.6,30.04,NW,304,4.0,-999.0,74,0.00,,,0.00,Wunderground v.1.15,2013-07-17 03:20:00,
2013-07-16 23:25:00,77.4,68.9,30.04,WNW,299,5.0,-999.0,75,0.00,,,0.00,Wunderground v.1.15,2013-07-17 03:25:00,
2013-07-16 23:30:00,77.1,68.6,30.04,WNW,291,5.0,-999.0,75,0.00,,,0.00,Wunderground v.1.15,2013-07-17 03:30:00,
2013-07-16 23:35:00,76.7,68.6,30.03,WNW,291,5.0,-999.0,76,0.00,,,0.00,Wunderground v.1.15,2013-07-17 03:35:00,
2013-07-16 23:40:00,76.0,68.3,30.03,WNW,291,6.0,-999.0,77,0.00,,,0.00,Wunderground v.1.15,2013-07-17 03:40:00,
2013-07-16 23:45:00,75.5,68.2,30.03,WNW,291,6.0,-999.0,78,0.00,,,0.00,Wunderground v.1.15,2013-07-17 03:45:00,
2013-07-16 23:50:00,74.8,68.2,30.04,WNW,291,6.0,-999.0,80,0.00,,,0.00,Wunderground v.1.15,2013-07-17 03:50:00,